Terminal Aerodrome Forecast
Issued by NWS Cleveland, OH

Home | Current Version | Previous Version | Text Only | Print | Product List | Glossary On
Versions: 1 2 3 4 5 6 7 8 9 10 11 12 13 14 15 16 17 18 19 20 21 22 23
000
FTUS41 KCLE 251214 AAA
TAFCAK
TAF AMD
KCAK 251214Z 2512/2612 22018G30KT P6SM SCT015 OVC025
     FM251230 26022G42KT P6SM SCT015 BKN025
      TEMPO 2513/2514 4SM -SHRA BKN015
     FM251800 25018G35KT P6SM SCT025 OVC035
     FM252200 25012G22KT P6SM SKC
     FM260000 25008KT P6SM SKC=

USA.gov is the U.S. government's official web portal to all federal, state and local government web resources and services.